• Join FlightAware (Why Join?)
  • Login
  • US Flag 
05:06PM EDT


 

Airport Tracker/Info


-or-


 

Live Flight TrackerFlight Track Log ✈ AAL297 ✈ 20-Apr-2013 ✈ KDFW - KLAX

Flight Track Log - Related Links

Times and Time Zones

All times are in EDT time to prevent confusion due to time zone crossing. See the AAL297 flight status page for this flight to view local times or setup timezone preferences in your user account.

Time Position Orientation Groundspeed Altitude Reporting Facility
EDT Latitude Longitude Course Direction KTS MPH feet Rate Location/Type
02:34PM 32.8650 -97.0520 181° South 170 196 2,200  Level FlightAware
02:34PM 32.8480 -97.0530 183° South 200 230 2,700 1,620 Climbing FlightAware
02:34PM 32.8290 -97.0530 180° South 222 255 3,300 2,460 Climbing FlightAware
02:35PM 32.7900 -97.0540 181° South 235 270 5,000 2,880 Climbing FlightAware
02:35PM 32.7630 -97.0570 185° South 251 289 6,200 2,820 Climbing FlightAware
02:36PM 32.7470 -97.0690 212° Southwest 266 306 6,900 2,760 Climbing FlightAware
02:36PM 32.7380 -97.0880 241° Southwest 275 316 7,600 2,580 Climbing FlightAware
02:36PM 32.7370 -97.1090 267° West 283 326 8,200 2,700 Climbing FlightAware
02:36PM 32.7450 -97.1470 284° West 286 329 9,400 2,280 Climbing FlightAware
02:37PM 32.7600 -97.2180 284° West 312 359 10,900 1,800 Climbing FlightAware
02:38PM 32.7740 -97.2880 283° West 337 388 12,000 2,100 Climbing FlightAware
02:39PM 32.7870 -97.3600 282° West 344 396 13,700 2,580 Climbing FlightAware
02:39PM 32.8030 -97.4460 283° West 346 398 15,700 2,520 Climbing FlightAware
02:40PM 32.8170 -97.5200 283° West 349 402 17,300 2,280 Climbing FlightAware
02:41PM 32.8290 -97.5820 283° West 350 403 18,600 2,100 Climbing FlightAware
02:41PM 32.8470 -97.6760 283° West 353 406 20,300 2,040 Climbing FlightAware
02:42PM 32.8570 -97.7580 278° West 355 409 21,700 1,800 Climbing FlightAware
02:43PM 32.8560 -97.8430 269° West 360 414 22,900 1,740 Climbing FlightAware
02:43PM 32.8550 -97.9190 269° West 359 413 24,200 1,800 Climbing FlightAware
02:44PM 32.8540 -98.0030 269° West 364 419 25,300 1,620 Climbing FlightAware
02:45PM 32.8520 -98.0950 269° West 368 423 26,500 1,500 Climbing FlightAware
02:45PM 32.8510 -98.1620 269° West 370 426 27,300 1,320 Climbing FlightAware
02:46PM 32.8490 -98.2650 269° West 373 429 28,400 1,200 Climbing FlightAware
02:47PM 32.8480 -98.3450 269° West 377 434 29,100 480 Climbing FlightAware
02:48PM 32.8450 -98.4290 268° West 377 434 29,100  Level FlightAware
02:48PM 32.8430 -98.5000 268° West 377 434 29,100  Level FlightAware
02:49PM 32.8410 -98.5700 268° West 377 434 29,100 2,940 Level FlightAware
02:50PM 32.8490 -98.6860 275° West 376 433 32,800 3,840 Climbing FlightAware
02:50PM 32.8610 -98.7830 278° West 361 415 34,600 1,740 Climbing FlightAware
02:51PM 32.8720 -98.8750 278° West 364 419 35,600 1,260 Climbing FlightAware
02:52PM 32.8830 -98.9520 280° West 365 420 36,400 1,200 Climbing FlightAware
02:53PM 32.8950 -99.0400 279° West 360 414 37,300 1,080 Climbing FlightAware
02:53PM 32.9060 -99.1200 279° West 361 415 38,000 480 Climbing FlightAware
02:54PM 32.9160 -99.1950 279° West 361 415 38,000  Level FlightAware
02:55PM 32.9280 -99.2840 279° West 361 415 38,000  Level FlightAware
02:55PM 32.9390 -99.3640 279° West 363 418 38,000  Level FlightAware
02:56PM 32.9510 -99.4540 279° West 367 422 38,000  Level FlightAware
02:57PM 32.9610 -99.5320 279° West 368 423 38,000  Level FlightAware
02:58PM 32.9730 -99.6200 279° West 369 425 38,000  Level FlightAware
02:58PM 32.9810 -99.6800 279° West 369 425 38,000  Level FlightAware
02:59PM 32.9900 -99.7620 277° West 369 425 38,000  Level FlightAware
03:00PM 33.0000 -99.8480 278° West 369 425 38,000  Level FlightAware
03:00PM 33.0080 -99.9170 278° West 369 425 38,000  Level FlightAware
03:01PM 33.0170 -99.9850 279° West 369 425 38,000  Level FlightAware
03:02PM 33.0380 -100.1220 280° West 373 429 38,000  Level FlightAware
03:02PM 33.0460 -100.1910 278° West 373 429 38,000  Level FlightAware
03:03PM 33.0540 -100.2610 278° West 373 429 38,000  Level FlightAware
03:04PM 33.0620 -100.3300 278° West 373 429 38,000  Level FlightAware
03:04PM 33.0700 -100.3990 278° West 373 429 38,000  Level FlightAware
03:05PM 33.0800 -100.4860 278° West 373 429 38,000  Level FlightAware
03:06PM 33.0890 -100.5550 279° West 373 429 38,000  Level FlightAware
03:07PM 33.0970 -100.6250 278° West 373 429 38,000  Level FlightAware
03:07PM 33.1050 -100.6940 278° West 373 429 38,000  Level FlightAware
03:08PM 33.1150 -100.7810 278° West 373 429 38,000  Level FlightAware
03:09PM 33.1230 -100.8500 278° West 373 429 38,000  Level FlightAware
03:09PM 33.1310 -100.9200 278° West 373 429 38,000  Level FlightAware
03:10PM 33.1400 -100.9890 279° West 373 429 38,000  Level FlightAware
03:11PM 33.1480 -101.0580 278° West 373 429 38,000  Level FlightAware
03:11PM 33.2094 -101.2914 278° West 372 428 38,000  Level Fort Worth Center
03:12PM 33.2250 -101.3989 280° West 372 428 38,000  Level Fort Worth Center
03:13PM 33.2394 -101.5336 277° West 372 428 38,000  Level Fort Worth Center
03:14PM 33.2525 -101.6436 278° West 372 428 38,000  Level Fort Worth Center
03:15PM 33.2644 -101.7808 276° West 372 428 38,000  Level Fort Worth Center
03:16PM 33.2794 -101.8908 279° West 372 428 38,000  Level Fort Worth Center
03:17PM 33.2933 -102.0233 277° West 372 428 38,000  Level Fort Worth Center
03:18PM 33.3061 -102.1308 278° West 372 428 38,000  Level Fort Worth Center
03:19PM 33.3217 -102.2633 278° West 377 434 38,000  Level Fort Worth Center
03:20PM 33.3361 -102.3786 279° West 371 427 38,000  Level Fort Worth Center
03:21PM 33.3497 -102.5086 277° West 371 427 38,000  Level Fort Worth Center
03:22PM 33.3658 -102.6189 280° West 371 427 38,000  Level Fort Worth Center
03:23PM 33.3794 -102.7417 278° West 376 433 38,000  Level Fort Worth Center
03:24PM 33.3931 -102.8617 278° West 371 427 38,000  Level Fort Worth Center
03:25PM 33.4003 -102.9286 277° West 370 426 38,000  Level Albuquerque Center
03:26PM 33.4125 -103.0489 277° West 368 423 38,000  Level Albuquerque Center
03:27PM 33.4253 -103.1681 277° West 365 420 38,000  Level Albuquerque Center
03:28PM 33.4367 -103.2864 277° West 362 417 38,000  Level Albuquerque Center
03:29PM 33.4514 -103.4281 277° West 361 415 38,000  Level Albuquerque Center
03:30PM 33.4650 -103.5456 278° West 359 413 38,000  Level Albuquerque Center
03:31PM 33.4758 -103.6647 276° West 360 414 38,000  Level Albuquerque Center
03:32PM 33.4906 -103.7969 278° West 361 415 38,000  Level Albuquerque Center
03:33PM 33.5022 -103.9147 277° West 359 413 38,000 240 Level Albuquerque Center
03:34PM 33.5153 -104.0472 277° West 372 428 38,500 540 Climbing Albuquerque Center
03:35PM 33.5275 -104.1717 277° West 377 434 39,200 600 Climbing Albuquerque Center
03:36PM 33.5394 -104.2975 277° West 381 438 39,800 360 Climbing Albuquerque Center
03:37PM 33.5525 -104.4317 277° West 381 438 40,000 60 Climbing Albuquerque Center
03:38PM 33.5639 -104.5592 276° West 386 444 40,000  Level Albuquerque Center
03:39PM 33.5767 -104.6917 277° West 376 433 40,000  Level Albuquerque Center
03:40PM 33.5872 -104.8106 276° West 364 419 40,000  Level Albuquerque Center
03:41PM 33.5994 -104.9272 277° West 355 409 40,000  Level Albuquerque Center
03:42PM 33.6108 -105.0542 276° West 356 410 40,000  Level Albuquerque Center
03:43PM 33.6217 -105.1711 276° West 354 407 40,000  Level Albuquerque Center
03:44PM 33.6328 -105.2972 276° West 356 410 40,000  Level Albuquerque Center
03:45PM 33.6439 -105.4172 276° West 364 419 40,000  Level Albuquerque Center
03:46PM 33.6542 -105.5386 276° West 366 421 40,000  Level Albuquerque Center
03:48PM 33.6650 -105.6539 276° West 373 429 40,000  Level Albuquerque Center
03:49PM 33.6778 -105.7803 277° West 380 437 40,000  Level Albuquerque Center
03:50PM 33.6875 -105.9006 276° West 372 428 40,000  Level Albuquerque Center
03:51PM 33.6953 -106.0414 274° West 361 415 40,000  Level Albuquerque Center
03:52PM 33.7058 -106.1586 276° West 357 411 40,000  Level Albuquerque Center
03:53PM 33.7153 -106.2769 276° West 356 410 40,000  Level Albuquerque Center
03:54PM 33.7250 -106.3986 276° West 362 417 40,000  Level Albuquerque Center
03:55PM 33.7353 -106.5231 276° West 371 427 40,000  Level Albuquerque Center
04:00PM 33.7870 -107.2600 276° West 368 423 40,000  Level FlightAware
04:01PM 33.7930 -107.3420 275° West 366 421 40,000  Level FlightAware
04:02PM 33.7980 -107.4220 274° West 366 421 40,000  Level FlightAware
04:03PM 33.8040 -107.5170 274° West 366 421 40,000  Level FlightAware
04:03PM 33.8090 -107.5910 275° West 367 422 40,000  Level FlightAware
04:04PM 33.8150 -107.6850 274° West 361 415 40,000  Level FlightAware
04:05PM 33.8210 -107.7770 275° West 356 410 40,000  Level FlightAware
04:05PM 33.8250 -107.8560 274° West 355 409 40,000  Level FlightAware
04:06PM 33.8300 -107.9350 274° West 354 407 40,000  Level FlightAware
04:07PM 33.8350 -108.0220 274° West 354 407 40,000  Level FlightAware
04:08PM 33.8410 -108.1220 274° West 355 409 40,000  Level FlightAware
04:08PM 33.8450 -108.1890 274° West 355 409 40,000  Level FlightAware
04:09PM 33.8510 -108.2980 274° West 358 412 40,000  Level FlightAware
04:10PM 33.8570 -108.4050 274° West 359 413 40,000  Level FlightAware
04:11PM 33.8600 -108.4700 273° West 359 413 40,000  Level FlightAware
04:11PM 33.8630 -108.5550 272° West 359 413 40,000  Level FlightAware
04:12PM 33.8660 -108.6230 273° West 359 413 40,000  Level FlightAware
04:13PM 33.8690 -108.6900 273° West 359 413 40,000  Level FlightAware
04:13PM 33.8720 -108.7580 273° West 359 413 40,000  Level FlightAware
04:14PM 33.8750 -108.8260 273° West 359 413 40,000  Level FlightAware
04:15PM 33.8790 -108.9110 273° West 359 413 40,000  Level FlightAware
04:16PM 33.8820 -108.9790 273° West 359 413 40,000  Level FlightAware
04:16PM 33.8850 -109.0470 273° West 359 413 40,000  Level FlightAware
04:17PM 33.8880 -109.1150 273° West 359 413 40,000  Level FlightAware
04:18PM 33.8910 -109.2000 272° West 359 413 40,000  Level FlightAware
04:18PM 33.9070 -109.3850 276° West 40,000  Level FlightAware
04:21PM 33.9200 -109.6550 273° West 372 428 40,000  Level FlightAware
04:21PM 33.9240 -109.7450 273° West 372 428 40,000  Level FlightAware
04:22PM 33.9290 -109.8570 273° West 369 425 40,000  Level FlightAware
04:23PM 33.9320 -109.9190 273° West 369 425 40,000  Level FlightAware
04:24PM 33.9380 -110.0390 273° West 367 422 40,000  Level FlightAware
04:24PM 33.9400 -110.1040 272° West 368 423 40,000  Level FlightAware
04:25PM 33.9460 -110.2290 273° West 367 422 40,000  Level FlightAware
04:26PM 33.9490 -110.3030 273° West 366 421 40,000  Level FlightAware
04:27PM 33.9530 -110.4040 273° West 367 422 40,000  Level FlightAware
04:27PM 33.9560 -110.4640 273° West 364 419 40,000  Level FlightAware
04:28PM 33.9610 -110.5660 273° West 362 417 40,000  Level FlightAware
04:29PM 33.9640 -110.6450 273° West 359 413 40,000  Level FlightAware
04:29PM 33.9680 -110.7430 273° West 358 412 40,000  Level FlightAware
04:30PM 33.9700 -110.8020 272° West 357 411 40,000  Level FlightAware
04:31PM 33.9750 -110.9100 273° West 359 413 40,000  Level FlightAware
04:32PM 33.9790 -111.0140 273° West 356 410 40,000  Level FlightAware
04:32PM 33.9820 -111.0890 273° West 356 410 40,000  Level FlightAware
04:33PM 33.9850 -111.1620 273° West 358 412 40,000  Level FlightAware
04:34PM 33.9880 -111.2280 273° West 358 412 40,000  Level FlightAware
04:35PM 33.9920 -111.3470 272° West 357 411 40,000  Level FlightAware
04:35PM 33.9950 -111.4280 273° West 354 407 40,000  Level FlightAware
04:36PM 33.9980 -111.4970 273° West 355 409 40,000  Level FlightAware
04:37PM 34.0020 -111.5930 273° West 355 409 40,000  Level FlightAware
04:38PM 34.0070 -111.7310 273° West 357 411 40,000  Level FlightAware
04:38PM 34.0100 -111.8020 273° West 361 415 40,000  Level FlightAware
04:39PM 34.0150 -111.9260 273° West 362 417 40,000  Level FlightAware
04:40PM 34.0180 -112.0060 273° West 361 415 40,000  Level FlightAware
04:41PM 34.0210 -112.0940 272° West 362 417 40,000  Level FlightAware
04:41PM 34.0240 -112.1760 273° West 363 418 40,000  Level FlightAware
04:42PM 34.0260 -112.2360 272° West 364 419 40,000  Level FlightAware
04:43PM 34.0300 -112.3570 272° West 365 420 40,000  Level FlightAware
04:44PM 34.0330 -112.4330 273° West 365 420 40,000  Level FlightAware
04:44PM 34.0370 -112.5500 272° West 364 419 40,000  Level FlightAware
04:45PM 34.0400 -112.6280 273° West 364 419 40,000  Level FlightAware
04:46PM 34.0420 -112.6860 272° West 364 419 40,000  Level FlightAware
04:46PM 34.0450 -112.7890 272° West 363 418 40,000  Level FlightAware
04:47PM 34.0490 -112.8850 273° West 359 413 40,000  Level FlightAware
04:48PM 34.0510 -112.9620 272° West 359 413 40,000  Level FlightAware
04:49PM 34.0540 -113.0600 272° West 358 412 40,000  Level FlightAware
04:49PM 34.0570 -113.1640 272° West 358 412 40,000  Level FlightAware
04:50PM 34.0600 -113.2420 273° West 357 411 40,000  Level FlightAware
04:51PM 34.0630 -113.3290 272° West 356 410 40,000  Level FlightAware
04:52PM 34.0650 -113.4110 272° West 361 415 40,000  Level FlightAware
04:52PM 34.0670 -113.4880 272° West 360 414 40,000  Level FlightAware
04:53PM 34.0660 -113.5690 269° West 360 414 40,000  Level FlightAware
04:54PM 34.0640 -113.6440 268° West 361 415 40,000  Level FlightAware
04:54PM 34.0630 -113.7200 269° West 363 418 40,000  Level FlightAware
04:55PM 34.0610 -113.8710 269° West 366 421 40,000  Level FlightAware
04:56PM 34.0600 -113.9400 269° West 365 420 40,000  Level FlightAware
04:57PM 34.0580 -114.0470 269° West 366 421 40,000  Level FlightAware
04:58PM 34.0570 -114.1220 269° West 366 421 40,000  Level FlightAware
04:59PM 34.0550 -114.2430 269° West 369 425 40,000  Level FlightAware
04:59PM 34.0540 -114.2970 269° West 368 423 40,000  Level FlightAware
05:00PM 34.0490 -114.4800 268° West 367 422 40,000  Level FlightAware
05:01PM 34.0480 -114.5390 269° West 367 422 40,000  Level FlightAware
05:02PM 34.0450 -114.6740 269° West 369 425 40,000  Level FlightAware
05:03PM 34.0430 -114.7440 268° West 369 425 40,000  Level FlightAware
05:04PM 34.0410 -114.8140 268° West 369 425 40,000  Level FlightAware
05:04PM 34.0380 -114.9590 269° West 369 425 40,000  Level FlightAware
05:05PM 34.0360 -115.0290 268° West 369 425 40,000  Level FlightAware
05:06PM 34.0340 -115.0990 268° West 369 425 40,000 -1,440 Level FlightAware
05:07PM 34.0300 -115.2470 268° West 382 440 37,800 -1,440 Descending FlightAware
05:07PM 34.0280 -115.3200 268° West 382 440 37,800 -2,160 Level FlightAware
05:08PM 34.0240 -115.4530 268° West 410 472 34,600 -2,580 Descending FlightAware
05:09PM 34.0210 -115.5430 268° West 413 475 34,000 -480 Descending FlightAware
05:09PM 34.0170 -115.6370 267° West 415 478 34,000  Level FlightAware
05:10PM 34.0140 -115.7430 268° West 414 476 34,000  Level FlightAware
05:11PM 34.0100 -115.8340 267° West 411 473 34,000  Level FlightAware
05:12PM 34.0070 -115.9290 268° West 410 472 34,000 -360 Level FlightAware
05:12PM 34.0030 -116.0270 267° West 421 484 33,500 -1,080 Descending FlightAware
05:13PM 33.9990 -116.1220 267° West 426 490 32,600 -1,380 Descending FlightAware
05:14PM 33.9950 -116.2290 267° West 428 493 31,600 -1,500 Descending FlightAware
05:14PM 33.9910 -116.3260 267° West 429 494 30,500 -1,860 Descending FlightAware
05:15PM 33.9860 -116.4300 267° West 429 494 29,000 -2,340 Descending FlightAware
05:16PM 33.9820 -116.5240 267° West 425 489 27,200 -2,640 Descending FlightAware
05:16PM 33.9780 -116.6170 267° West 416 479 25,500 -2,700 Descending FlightAware
05:17PM 33.9730 -116.7240 267° West 407 468 23,400 -2,760 Descending FlightAware
05:18PM 33.9690 -116.8140 267° West 401 461 21,600 -2,700 Descending FlightAware
05:18PM 33.9640 -116.9010 266° West 395 455 19,800 -2,700 Descending FlightAware
05:19PM 33.9590 -116.9980 266° West 390 449 17,800 -1,980 Descending FlightAware
05:20PM 33.9550 -117.0840 267° West 380 437 17,000 -900 Descending FlightAware
05:21PM 33.9480 -117.1810 265° West 383 441 16,600 -720 Descending FlightAware
05:21PM 33.9400 -117.2640 263° West 376 433 16,000 -1,020 Descending FlightAware
05:22PM 33.9320 -117.3570 264° West 375 432 15,200 -1,140 Descending FlightAware
05:23PM 33.9500 -117.4350 286° West 369 425 14,400 -1,320 Descending FlightAware
05:23PM 33.9790 -117.5110 295° West 367 422 13,500 -1,500 Descending FlightAware
05:24PM 34.0060 -117.5930 292° West 342 394 12,300 -1,560 Descending FlightAware
05:25PM 34.0070 -117.6640 271° West 319 367 11,300 -1,440 Descending FlightAware
05:25PM 33.9990 -117.7330 262° West 302 348 10,400 -1,380 Descending FlightAware
05:26PM 33.9940 -117.7850 263° West 306 352 9,700 -1,440 Descending FlightAware
05:26PM 33.9880 -117.8350 262° West 301 346 9,000 -1,440 Descending FlightAware
05:27PM 33.9840 -117.8780 264° West 291 335 8,400 -1,560 Descending FlightAware
05:27PM 33.9790 -117.9250 263° West 287 330 7,600 -1,620 Descending FlightAware
05:28PM 33.9740 -117.9730 263° West 283 326 6,800 -1,560 Descending FlightAware
05:28PM 33.9700 -118.0100 263° West 279 321 6,200 -1,560 Descending FlightAware
05:29PM 33.9650 -118.0560 263° West 278 320 5,400 -1,560 Descending FlightAware
05:29PM 33.9610 -118.0950 263° West 268 308 4,800 -1,320 Descending FlightAware
05:30PM 33.9560 -118.1380 262° West 247 284 4,200 -1,440 Descending FlightAware
05:30PM 33.9520 -118.1780 263° West 236 272 3,400 -1,440 Descending FlightAware
05:31PM 33.9480 -118.2080 261° West 223 257 2,900 -1,140 Descending FlightAware
05:31PM 33.9440 -118.2430 262° West 198 228 2,400 -660 Descending FlightAware
05:32PM 33.9400 -118.2780 262° West 194 223 2,200 -720 Descending FlightAware
05:32PM 33.9390 -118.2940 266° West 165 190 1,600 -720 Descending FlightAware
05:33PM 33.9350 -118.3260 261° West 158 182 1,400 -780 Descending FlightAware
05:34PM 33.9300 -118.3630 261° West 127 146 500 -900 Descending FlightAware
05:34PM 33.9280 -118.3780 261° West 127 146 300 -360 Descending FlightAware
05:35PM 33.9260 -118.3970 263° West 127 146 200 -240 Descending FlightAware